WetterOnline ( https://www.wetteronline.de )

Wetter aktuell Schmallenberger Höhe

Aktuelles Wetter: Kahler Asten (841m)

6-stündlich | Neueste Meldungen
Ortszeit Temperatur Wetter
Sa, 15.05. 2:00 5.6° C leicht bewölkt
Fr, 14.05. 20:00 6.8° C leicht bewölkt
Fr, 14.05. 14:00 10.4° C bewölkt
Fr, 14.05. 8:00 6.2° C bewölkt
Fr, 14.05. 2:00 6.3° C bedeckt
Do, 13.05. 20:00 10.5° C bedeckt
Do, 13.05. 14:00 10.4° C bedeckt
Do, 13.05. 8:00 7.7° C bewölkt
Ortszeit Temperatur Wetter
Sa, 15.05. 2:00 5.6° C leicht bewölkt
Sa, 15.05. 1:50 5.6° C leicht bewölkt
Sa, 15.05. 1:40 5.7° C leicht bewölkt
Sa, 15.05. 1:30 6.2° C wolkig
Sa, 15.05. 1:20 6.2° C wolkig
Sa, 15.05. 1:10 6.1° C wolkig
Sa, 15.05. 1:00 6.2° C bedeckt
Sa, 15.05. 0:30 6.0° C wolkig
Sa, 15.05. 0:00 5.9° C leicht bewölkt
Fr, 14.05. 23:30 6.0° C fast wolkenlos
Fr, 14.05. 23:00 5.8° C wolkenlos
Ortszeit Relative Feuchte Sichtweite
Sa, 15.05. 2:00 86% >70 km
Fr, 14.05. 20:00 87% >70 km
Fr, 14.05. 14:00 56% >70 km
Fr, 14.05. 8:00 93% 10 km
Fr, 14.05. 2:00 97% 1.5 km
Do, 13.05. 20:00 69% 45 km
Do, 13.05. 14:00 63% 65 km
Do, 13.05. 8:00 83% 35 km
Ortszeit Relative Feuchte Sichtweite
Sa, 15.05. 2:00 86% >70 km
Sa, 15.05. 1:50 86% -
Sa, 15.05. 1:40 85% -
Sa, 15.05. 1:30 83% >70 km
Sa, 15.05. 1:20 83% -
Sa, 15.05. 1:10 83% -
Sa, 15.05. 1:00 82% >70 km
Sa, 15.05. 0:30 82% >70 km
Sa, 15.05. 0:00 79% >70 km
Fr, 14.05. 23:30 80% >70 km
Fr, 14.05. 23:00 82% >70 km
Ortszeit Niederschlagsmenge Niederschlagsart
Sa, 15.05. 2:00 0.0 l/m2 in 6 Std. -
Fr, 14.05. 20:00 1 l/m2 in 12 Std. Regen
Fr, 14.05. 14:00 0.0 l/m2 in 6 Std. -
Fr, 14.05. 8:00 0.1 l/m2 in 12 Std. Regen
Fr, 14.05. 2:00 0.1 l/m2 in 6 Std. Regen
Do, 13.05. 20:00 0.1 l/m2 in 12 Std. Regen
Do, 13.05. 14:00 0.1 l/m2 in 6 Std. Regen
Do, 13.05. 8:00 1 l/m2 in 12 Std. -
Ortszeit Niederschlagsmenge Niederschlagsart
Sa, 15.05. 2:00 0.0 l/m2 in 1 Std. -
Sa, 15.05. 1:50 keine Meldung -
Sa, 15.05. 1:40 keine Meldung -
Sa, 15.05. 1:30 0.0 l/m2 in 1 Std. -
Sa, 15.05. 1:20 keine Meldung -
Sa, 15.05. 1:10 keine Meldung -
Sa, 15.05. 1:00 0.0 l/m2 in 1 Std. -
Sa, 15.05. 0:30 0.0 l/m2 in 1 Std. -
Sa, 15.05. 0:00 0.0 l/m2 in 1 Std. -
Fr, 14.05. 23:30 0.0 l/m2 in 1 Std. -
Fr, 14.05. 23:00 0.0 l/m2 in 1 Std. -
Ortszeit Stärke Spitze Richtung
km/h Bft. km/h Grad Sektor
Sa, 15.05. 2:00 18 3 29 230° SW
Fr, 14.05. 20:00 18 3 32 280° W
Fr, 14.05. 14:00 20 4 35 230° SW
Fr, 14.05. 8:00 20 4 31 280° W
Fr, 14.05. 2:00 14 3 29 280° W
Do, 13.05. 20:00 7 2 22 150° SO
Do, 13.05. 14:00 6 1 17 10° N
Do, 13.05. 8:00 9 2 15 260° W
Ortszeit Stärke Spitze Richtung
km/h Bft. km/h Grad Sektor
Sa, 15.05. 2:00 18 3 29 230° SW
Sa, 15.05. 1:50 18 3 - 230° SW
Sa, 15.05. 1:40 19 3 - 230° SW
Sa, 15.05. 1:30 20 4 28 230° SW
Sa, 15.05. 1:20 20 4 - 230° SW
Sa, 15.05. 1:10 19 3 - 230° SW
Sa, 15.05. 1:00 18 3 25 230° SW
Sa, 15.05. 0:30 19 3 24 250° W
Sa, 15.05. 0:00 18 3 29 240° SW
Fr, 14.05. 23:30 18 3 22 230° SW
Fr, 14.05. 23:00 18 3 25 240° SW
Ortszeit Untergrenze Bedeckung Gattung
total tief tief mittel hoch
Sa, 15.05. 2:00 780 m 2/8 2/8 - - -
Fr, 14.05. 20:00 3300 m 4/8 4/8 - - -
Fr, 14.05. 14:00 1080 m 7/8 7/8 - - -
Fr, 14.05. 8:00 90 m 7/8 7/8 - - -
Fr, 14.05. 2:00 30 m 8/8 8/8 - - -
Do, 13.05. 20:00 780 m 8/8 8/8 - - -
Do, 13.05. 14:00 1500 m 8/8 8/8 - - -
Do, 13.05. 8:00 1800 m 7/8 7/8 - - -
Ortszeit Bedeckungsgrad in Achtel und Wolkenuntergrenze
Sa, 15.05. 2:00 2(780m)
Sa, 15.05. 1:50 2(780m)
Sa, 15.05. 1:40 1(510m) 2(1110m)
Sa, 15.05. 1:30 2(510m) 5(1110m) 6(1470m)
Sa, 15.05. 1:20 2(510m) 5(1110m) 6(1470m)
Sa, 15.05. 1:10 4(1110m) 5(1440m)
Sa, 15.05. 1:00 5(1140m) 8(1380m)
Sa, 15.05. 0:30 5(1350m)
Sa, 15.05. 0:00 2(1500m)
Fr, 14.05. 23:30 1(1500m)
Fr, 14.05. 23:00 keine Wolken
Ortszeit Stationsdruck (hPa) Tendenz (hPa in 3 Std.)
Sa, 15.05. 2:00 909 - 0,7
Fr, 14.05. 20:00 909 + 0,1
Fr, 14.05. 14:00 909 + 0,2
Fr, 14.05. 8:00 908 + 0,5
Fr, 14.05. 2:00 908 - 0,4
Do, 13.05. 20:00 908 - 0,2
Do, 13.05. 14:00 909 - 0,5
Do, 13.05. 8:00 909 - 0,8
Ortszeit Stationsdruck (hPa) Tendenz (hPa in 3 Std.)
Sa, 15.05. 2:00 909 - 0,7
Sa, 15.05. 1:50 909 keine Meldung
Sa, 15.05. 1:40 909 keine Meldung
Sa, 15.05. 1:30 909 - 0,3
Sa, 15.05. 1:20 909 keine Meldung
Sa, 15.05. 1:10 910 keine Meldung
Sa, 15.05. 1:00 910 + 0,1
Sa, 15.05. 0:30 910 + 0,3
Sa, 15.05. 0:00 910 + 0,2
Fr, 14.05. 23:30 910 + 0,2
Fr, 14.05. 23:00 910 + 0,4
Ortszeit Schneehöhe (cm)
Sa, 15.05. 2:00 0
Fr, 14.05. 20:00 0
Fr, 14.05. 14:00 0
Fr, 14.05. 8:00 0
Fr, 14.05. 2:00 0
Do, 13.05. 20:00 0
Do, 13.05. 14:00 0
Do, 13.05. 8:00 0
Ortszeit Schneehöhe (cm)
Sa, 15.05. 2:00 0
Sa, 15.05. 1:50 0
Sa, 15.05. 1:40 0
Sa, 15.05. 1:30 0
Sa, 15.05. 1:20 0
Sa, 15.05. 1:10 0
Sa, 15.05. 1:00 0
Sa, 15.05. 0:30 0
Sa, 15.05. 0:00 0
Fr, 14.05. 23:30 0
Fr, 14.05. 23:00 0
Link zu dieser Seite / Seite empfehlen

Das Wetter in ...